createdAt,value
2018-12-20T00:02:06.462Z,20.10
2018-12-20T00:04:35.047Z,20.13
2018-12-20T00:07:04.352Z,21.27
2018-12-20T00:09:33.107Z,20.67
2018-12-20T00:12:01.918Z,20.23
2018-12-20T00:14:30.880Z,19.97
2018-12-20T00:17:04.769Z,19.93
2018-12-20T00:19:33.547Z,20.03
2018-12-20T00:22:02.365Z,19.87
2018-12-20T00:24:30.986Z,20.90
2018-12-20T00:26:59.777Z,21.03
2018-12-20T00:29:28.511Z,22.00
2018-12-20T00:31:59.771Z,22.30
2018-12-20T00:34:28.674Z,21.43
2018-12-20T00:36:57.519Z,23.03
2018-12-20T00:39:26.327Z,23.67
2018-12-20T00:41:55.154Z,22.87
2018-12-20T00:44:23.852Z,22.37
2018-12-20T00:46:52.461Z,22.77
2018-12-20T00:49:21.202Z,23.40
2018-12-20T00:51:50.058Z,23.17
2018-12-20T00:54:18.810Z,24.03
2018-12-20T00:56:47.525Z,24.57
2018-12-20T00:59:16.202Z,24.83
2018-12-20T01:01:44.915Z,23.67
2018-12-20T01:04:13.705Z,25.27
2018-12-20T01:06:42.446Z,23.37
2018-12-20T01:09:11.266Z,25.07
2018-12-20T01:11:40.060Z,25.30
2018-12-20T01:14:08.761Z,25.03
2018-12-20T01:16:37.495Z,24.63
2018-12-20T01:19:06.561Z,24.97
2018-12-20T01:21:35.376Z,24.43
2018-12-20T01:24:05.283Z,24.20
2018-12-20T01:26:34.261Z,25.43
2018-12-20T01:29:03.000Z,25.77
2018-12-20T01:31:31.744Z,24.23
2018-12-20T01:34:00.462Z,24.47
2018-12-20T01:36:29.171Z,25.27
2018-12-20T01:38:58.016Z,23.57
2018-12-20T01:41:27.377Z,25.07
2018-12-20T01:43:56.336Z,23.73
2018-12-20T01:46:34.819Z,25.83
2018-12-20T01:49:03.564Z,25.60
2018-12-20T01:51:32.251Z,26.37
2018-12-20T01:54:01.066Z,27.03
2018-12-20T01:56:29.828Z,28.77
2018-12-20T01:58:58.601Z,28.23
2018-12-20T02:01:27.262Z,29.20
2018-12-20T02:03:55.837Z,29.90
2018-12-20T02:06:24.553Z,29.77
2018-12-20T02:08:53.334Z,29.63
2018-12-20T02:11:22.043Z,31.13
2018-12-20T02:13:50.762Z,31.93
2018-12-20T02:16:19.619Z,32.30
2018-12-20T02:18:48.472Z,31.87
2018-12-20T02:21:17.251Z,31.73
2018-12-20T02:23:45.895Z,34.83
2018-12-20T02:26:14.737Z,34.07
2018-12-20T02:28:43.520Z,33.23
2018-12-20T02:31:12.271Z,34.30
2018-12-20T02:33:40.923Z,32.77
2018-12-20T02:36:09.792Z,35.00
2018-12-20T02:38:38.519Z,32.20
2018-12-20T02:41:07.209Z,34.00
2018-12-20T02:43:35.896Z,33.73
2018-12-20T02:46:04.714Z,34.87
2018-12-20T02:48:33.448Z,34.43
2018-12-20T02:51:02.186Z,33.73
2018-12-20T02:53:31.164Z,34.20
2018-12-20T02:56:00.006Z,33.27
2018-12-20T02:58:28.818Z,35.00
2018-12-20T03:00:57.479Z,34.60
2018-12-20T03:03:26.234Z,34.23
2018-12-20T03:05:55.130Z,33.87
2018-12-20T03:08:23.947Z,33.67
2018-12-20T03:10:52.637Z,31.33
2018-12-20T03:13:21.252Z,31.23
2018-12-20T03:15:50.847Z,28.57
2018-12-20T03:18:19.786Z,28.60
2018-12-20T03:20:48.521Z,28.10
2018-12-20T03:23:17.203Z,28.47
2018-12-20T03:25:46.049Z,26.70
2018-12-20T03:28:14.902Z,26.87
2018-12-20T03:30:43.547Z,26.93
2018-12-20T03:33:12.071Z,25.83
2018-12-20T03:35:40.800Z,25.23
2018-12-20T03:38:09.633Z,25.67
2018-12-20T03:40:38.355Z,26.23
2018-12-20T03:43:07.182Z,26.77
2018-12-20T03:45:35.997Z,25.30
2018-12-20T03:48:04.900Z,26.20
2018-12-20T03:50:34.231Z,26.33
2018-12-20T03:53:03.114Z,26.43
2018-12-20T03:55:31.796Z,26.17
2018-12-20T03:58:00.675Z,25.53
2018-12-20T04:00:29.659Z,24.50
2018-12-20T04:02:58.706Z,24.97
2018-12-20T04:05:27.829Z,23.57
2018-12-20T04:07:56.611Z,25.23
2018-12-20T04:10:25.446Z,24.93
2018-12-20T04:12:54.092Z,24.50
2018-12-20T04:15:22.727Z,23.47
2018-12-20T04:17:51.392Z,22.60
2018-12-20T04:20:20.616Z,23.97
2018-12-20T04:22:49.233Z,24.10
2018-12-20T04:25:17.885Z,22.40
2018-12-20T04:27:46.522Z,24.03
2018-12-20T04:30:15.232Z,22.63
2018-12-20T04:32:44.095Z,24.50
2018-12-20T04:35:13.347Z,24.50
2018-12-20T04:37:42.027Z,24.17
2018-12-20T04:40:10.869Z,25.03
2018-12-20T04:42:39.746Z,24.10
2018-12-20T04:45:08.554Z,23.27
2018-12-20T04:47:37.340Z,23.90
2018-12-20T04:50:06.226Z,23.37
2018-12-20T04:52:34.891Z,24.83
2018-12-20T04:55:03.598Z,25.13
2018-12-20T04:57:32.500Z,25.90
2018-12-20T05:00:01.179Z,25.70
2018-12-20T05:02:29.949Z,25.53
2018-12-20T05:04:58.700Z,26.00
2018-12-20T05:07:28.444Z,25.97
2018-12-20T05:09:57.091Z,28.03
2018-12-20T05:12:25.913Z,26.50
2018-12-20T05:14:54.876Z,26.10
2018-12-20T05:17:23.620Z,26.90
2018-12-20T05:19:52.201Z,25.33
2018-12-20T05:22:21.232Z,26.73
2018-12-20T05:24:49.954Z,27.50
2018-12-20T05:27:18.636Z,25.37
2018-12-20T05:29:47.616Z,28.47
2018-12-20T05:32:16.376Z,26.40
2018-12-20T05:34:45.174Z,28.27
2018-12-20T05:37:13.945Z,27.63
2018-12-20T05:39:42.699Z,28.03
2018-12-20T05:42:11.343Z,28.53
2018-12-20T05:44:40.453Z,27.20
2018-12-20T05:47:09.025Z,27.23
2018-12-20T05:49:37.778Z,28.10
2018-12-20T05:52:06.673Z,28.90
2018-12-20T05:54:35.569Z,30.60
2018-12-20T05:57:04.623Z,30.60
2018-12-20T05:59:33.430Z,30.70
2018-12-20T06:02:02.126Z,29.00
2018-12-20T06:04:30.876Z,32.30
2018-12-20T06:06:59.685Z,30.83
2018-12-20T06:09:28.427Z,31.40
2018-12-20T06:11:57.176Z,32.10
2018-12-20T06:14:26.000Z,31.97
2018-12-20T06:16:55.350Z,32.57
2018-12-20T06:19:23.975Z,30.77
2018-12-20T06:21:52.770Z,34.33
2018-12-20T06:24:21.920Z,30.93
2018-12-20T06:26:50.503Z,32.47
2018-12-20T06:29:19.244Z,32.77
2018-12-20T06:31:47.985Z,32.27
2018-12-20T06:34:16.638Z,31.93
2018-12-20T06:36:45.412Z,31.40
2018-12-20T06:39:14.108Z,32.20
2018-12-20T06:41:44.164Z,31.70
2018-12-20T06:44:12.870Z,31.50
2018-12-20T06:46:50.955Z,32.10
2018-12-20T06:49:19.683Z,32.30
2018-12-20T06:51:48.373Z,33.30
2018-12-20T06:54:17.221Z,34.00
2018-12-20T06:56:45.957Z,32.23
2018-12-20T06:59:14.595Z,33.87
2018-12-20T07:01:43.276Z,33.70
2018-12-20T07:04:11.987Z,34.77
2018-12-20T07:06:40.681Z,34.13
2018-12-20T07:09:10.160Z,35.33
2018-12-20T07:11:38.836Z,33.30
2018-12-20T07:14:08.172Z,34.70
2018-12-20T07:16:36.851Z,33.93
2018-12-20T07:19:05.825Z,35.07
2018-12-20T07:21:35.096Z,33.20
2018-12-20T07:24:03.935Z,35.10
2018-12-20T07:26:32.643Z,34.00
2018-12-20T07:29:01.467Z,33.80
2018-12-20T07:31:30.282Z,34.10
2018-12-20T07:33:59.067Z,33.43
2018-12-20T07:36:27.844Z,35.23
2018-12-20T07:38:56.543Z,34.30
2018-12-20T07:41:29.302Z,35.20
2018-12-20T07:43:58.103Z,34.40
2018-12-20T07:46:26.978Z,33.43
2018-12-20T07:48:55.709Z,32.77
2018-12-20T07:51:28.522Z,32.93
2018-12-20T07:53:57.284Z,33.73
2018-12-20T07:56:26.019Z,32.30
2018-12-20T07:58:54.644Z,31.30
2018-12-20T08:01:23.314Z,31.93
2018-12-20T08:03:52.207Z,31.87
2018-12-20T08:06:20.859Z,32.13
2018-12-20T08:08:49.696Z,32.23
2018-12-20T08:11:18.355Z,33.30
2018-12-20T08:13:47.041Z,31.50
2018-12-20T08:16:15.822Z,31.07
2018-12-20T08:18:44.546Z,31.43
2018-12-20T08:21:13.205Z,30.13
2018-12-20T08:23:42.611Z,29.37
2018-12-20T08:26:11.346Z,30.93
2018-12-20T08:28:40.003Z,31.30
2018-12-20T08:31:08.727Z,29.83
2018-12-20T08:33:37.560Z,29.97
2018-12-20T08:36:06.296Z,28.93
2018-12-20T08:38:35.203Z,29.33
2018-12-20T08:41:03.907Z,28.47
2018-12-20T08:43:32.617Z,28.33
2018-12-20T08:46:01.379Z,26.53
2018-12-20T08:48:30.242Z,28.60
2018-12-20T08:50:59.021Z,27.67
2018-12-20T08:53:27.749Z,27.20
2018-12-20T08:55:56.471Z,26.83
2018-12-20T08:58:25.288Z,27.57
2018-12-20T09:00:53.902Z,26.50
2018-12-20T09:03:22.627Z,26.50
2018-12-20T09:05:51.237Z,25.23
2018-12-20T09:08:19.891Z,25.57
2018-12-20T09:10:48.581Z,25.10
2018-12-20T09:13:17.216Z,26.60
2018-12-20T09:15:45.990Z,22.27
2018-12-20T09:18:14.745Z,22.43
2018-12-20T09:20:43.433Z,21.47
2018-12-20T09:23:12.100Z,21.37
2018-12-20T09:25:40.669Z,20.00
2018-12-20T09:28:09.382Z,17.50
2018-12-20T09:30:38.055Z,17.27
2018-12-20T09:33:08.167Z,16.57
2018-12-20T09:35:36.791Z,16.60
2018-12-20T09:38:05.643Z,16.00
2018-12-20T09:40:34.409Z,16.00
2018-12-20T09:43:03.173Z,15.10
2018-12-20T09:45:31.803Z,18.60
2018-12-20T09:48:07.875Z,14.83
2018-12-20T09:50:36.513Z,16.17
2018-12-20T09:53:05.317Z,13.20
2018-12-20T09:55:34.123Z,12.07
2018-12-20T09:58:02.770Z,12.20
2018-12-20T10:00:31.431Z,12.40
2018-12-20T10:03:00.052Z,12.23
2018-12-20T10:05:28.902Z,14.53
2018-12-20T10:07:57.746Z,12.70
2018-12-20T10:10:26.982Z,12.57
2018-12-20T10:12:56.624Z,18.67
2018-12-20T10:15:25.366Z,11.17
2018-12-20T10:17:54.001Z,11.67
2018-12-20T10:20:22.730Z,12.23
2018-12-20T10:22:51.374Z,11.90
2018-12-20T10:25:20.095Z,10.17
2018-12-20T10:27:48.732Z,10.87
2018-12-20T10:30:17.503Z,10.87
2018-12-20T10:32:46.188Z,11.53
2018-12-20T10:35:14.787Z,9.60
2018-12-20T10:37:43.499Z,10.10
2018-12-20T10:40:12.287Z,9.03
2018-12-20T10:42:41.110Z,9.33
2018-12-20T10:45:09.946Z,10.43
2018-12-20T10:47:38.654Z,9.80
2018-12-20T10:50:08.598Z,10.40
2018-12-20T10:52:41.855Z,10.50
2018-12-20T10:55:10.665Z,9.70
2018-12-20T10:57:39.380Z,9.60
2018-12-20T11:00:10.236Z,9.07
2018-12-20T11:02:45.267Z,8.47
2018-12-20T11:05:19.139Z,8.40
2018-12-20T11:07:53.005Z,8.77
2018-12-20T11:10:31.153Z,8.63
2018-12-20T11:13:04.056Z,7.93
2018-12-20T11:15:32.960Z,7.80
2018-12-20T11:18:01.859Z,7.17
2018-12-20T11:20:32.319Z,8.00
2018-12-20T11:23:01.808Z,7.70
2018-12-20T11:25:31.577Z,8.47
2018-12-20T11:28:00.327Z,7.60
2018-12-20T11:30:29.037Z,9.13
2018-12-20T11:32:59.544Z,9.60
2018-12-20T11:35:28.446Z,9.50
2018-12-20T11:37:57.312Z,9.20
2018-12-20T11:40:26.257Z,8.90
2018-12-20T11:42:54.930Z,8.53
2018-12-20T11:45:23.756Z,9.20
2018-12-20T11:47:52.536Z,8.57
2018-12-20T11:50:21.278Z,8.47
2018-12-20T11:52:49.980Z,8.07
2018-12-20T11:55:18.822Z,8.23
2018-12-20T11:57:47.671Z,8.27
2018-12-20T12:00:16.557Z,6.53
2018-12-20T12:02:45.264Z,6.60
2018-12-20T12:05:14.259Z,7.07
2018-12-20T12:07:43.082Z,5.17
2018-12-20T12:10:12.490Z,5.10
2018-12-20T12:12:41.434Z,5.07
2018-12-20T12:15:10.139Z,4.90
2018-12-20T12:17:39.050Z,5.10
2018-12-20T12:20:08.633Z,5.20
2018-12-20T12:22:37.398Z,4.30
2018-12-20T12:25:07.040Z,3.90
2018-12-20T12:27:35.826Z,4.33
2018-12-20T12:30:05.137Z,4.60
2018-12-20T12:32:33.895Z,3.97
2018-12-20T12:35:02.588Z,5.87
2018-12-20T12:37:31.266Z,6.23
2018-12-20T12:40:00.062Z,5.77
2018-12-20T12:42:28.770Z,6.93
2018-12-20T12:44:57.505Z,7.40
2018-12-20T12:47:31.626Z,8.63
2018-12-20T12:50:00.437Z,10.47
2018-12-20T12:52:29.224Z,10.50
2018-12-20T12:54:57.985Z,10.73
2018-12-20T12:57:26.929Z,9.77
2018-12-20T12:59:55.841Z,9.30
2018-12-20T13:02:24.670Z,9.30
2018-12-20T13:04:53.469Z,9.43
2018-12-20T13:07:32.535Z,9.50
2018-12-20T13:10:01.379Z,8.40
2018-12-20T13:12:30.067Z,8.33
2018-12-20T13:14:58.981Z,8.67
2018-12-20T13:17:27.679Z,8.40
2018-12-20T13:19:56.532Z,8.30
2018-12-20T13:22:25.320Z,7.70
2018-12-20T13:24:54.249Z,8.20
2018-12-20T13:27:23.111Z,7.63
2018-12-20T13:29:51.874Z,8.33
2018-12-20T13:32:20.774Z,8.13
2018-12-20T13:34:49.609Z,8.40
2018-12-20T13:37:18.573Z,9.33
2018-12-20T13:39:48.249Z,8.10
2018-12-20T13:42:17.128Z,8.03
2018-12-20T13:44:46.139Z,8.60
2018-12-20T13:47:14.884Z,9.13
2018-12-20T13:49:43.626Z,8.47
2018-12-20T13:52:12.372Z,8.07
2018-12-20T13:54:41.345Z,7.07
2018-12-20T13:57:10.077Z,6.53
2018-12-20T13:59:39.686Z,6.00
2018-12-20T14:02:08.397Z,6.63
2018-12-20T14:04:37.166Z,5.77
2018-12-20T14:07:06.134Z,5.93
2018-12-20T14:09:34.863Z,5.77
2018-12-20T14:12:03.645Z,5.10
2018-12-20T14:14:32.555Z,5.53
2018-12-20T14:17:01.456Z,5.73
2018-12-20T14:19:30.374Z,5.00
2018-12-20T14:21:59.300Z,5.10
2018-12-20T14:24:28.201Z,4.57
2018-12-20T14:26:57.287Z,6.13
2018-12-20T14:29:26.206Z,6.13
2018-12-20T14:31:55.043Z,5.70
2018-12-20T14:34:23.819Z,9.57
2018-12-20T14:36:52.829Z,10.40
2018-12-20T14:39:21.781Z,7.67
2018-12-20T14:41:50.557Z,8.30
2018-12-20T14:44:19.293Z,8.60
2018-12-20T14:46:48.229Z,7.67
2018-12-20T14:49:17.165Z,7.37
2018-12-20T14:51:46.008Z,7.07
2018-12-20T14:54:14.885Z,6.10
2018-12-20T14:56:43.621Z,5.47
2018-12-20T14:59:12.362Z,6.17
2018-12-20T15:01:41.227Z,6.70
2018-12-20T15:04:10.160Z,5.83
2018-12-20T15:06:39.234Z,6.37
2018-12-20T15:09:08.681Z,7.10
2018-12-20T15:11:37.518Z,6.20
2018-12-20T15:14:06.403Z,7.83
2018-12-20T15:16:36.010Z,6.00
2018-12-20T15:19:05.057Z,6.63
2018-12-20T15:21:33.739Z,6.50
2018-12-20T15:24:02.415Z,6.10
2018-12-20T15:26:31.154Z,6.73
2018-12-20T15:28:59.921Z,5.37
2018-12-20T15:31:28.770Z,6.40
2018-12-20T15:33:57.620Z,7.20
2018-12-20T15:36:26.428Z,6.70
2018-12-20T15:38:55.347Z,6.67
2018-12-20T15:41:24.476Z,8.20
2018-12-20T15:43:53.403Z,8.13
2018-12-20T15:46:22.442Z,7.87
2018-12-20T15:48:56.410Z,7.20
2018-12-20T15:51:24.107Z,7.13
2018-12-20T15:53:52.780Z,7.33
2018-12-20T15:56:21.644Z,8.00
2018-12-20T15:58:50.436Z,7.43
2018-12-20T16:01:19.330Z,6.80
2018-12-20T16:03:48.110Z,6.77
2018-12-20T16:06:17.308Z,7.77
2018-12-20T16:08:46.002Z,7.83
2018-12-20T16:11:14.859Z,7.60
2018-12-20T16:13:43.679Z,8.53
2018-12-20T16:16:12.747Z,7.40
2018-12-20T16:18:41.707Z,7.40
2018-12-20T16:21:10.568Z,6.87
2018-12-20T16:23:39.338Z,8.67
2018-12-20T16:26:08.096Z,7.07
2018-12-20T16:28:37.138Z,7.47
2018-12-20T16:31:06.290Z,8.07
2018-12-20T16:33:35.312Z,6.97
2018-12-20T16:36:04.347Z,7.07
2018-12-20T16:38:33.134Z,6.93
2018-12-20T16:41:02.135Z,6.83
2018-12-20T16:43:30.853Z,6.63
2018-12-20T16:45:59.602Z,6.67
2018-12-20T16:48:28.445Z,7.53
2018-12-20T16:50:57.276Z,6.03
2018-12-20T16:53:26.051Z,6.33
2018-12-20T16:55:54.856Z,5.83
2018-12-20T16:58:23.995Z,6.90
2018-12-20T17:00:54.814Z,6.63
2018-12-20T17:03:23.959Z,5.97
2018-12-20T17:05:53.737Z,6.87
2018-12-20T17:08:24.154Z,6.20
2018-12-20T17:10:54.837Z,6.87
2018-12-20T17:13:23.592Z,5.93
2018-12-20T17:15:52.391Z,5.43
2018-12-20T17:18:21.328Z,5.70
2018-12-20T17:20:50.223Z,5.30
2018-12-20T17:23:18.930Z,5.60
2018-12-20T17:25:48.447Z,5.70
2018-12-20T17:28:17.110Z,6.70
2018-12-20T17:30:45.809Z,6.27
2018-12-20T17:33:14.441Z,5.63
2018-12-20T17:35:43.112Z,6.23
2018-12-20T17:38:11.793Z,5.53
2018-12-20T17:40:40.671Z,6.30
2018-12-20T17:43:09.857Z,5.83
2018-12-20T17:45:38.567Z,6.47
2018-12-20T17:48:07.357Z,6.40
2018-12-20T17:50:36.154Z,7.23
2018-12-20T17:53:05.615Z,6.07
2018-12-20T17:55:34.315Z,6.83
2018-12-20T17:58:03.091Z,6.37
2018-12-20T18:00:32.099Z,6.63
2018-12-20T18:03:00.879Z,6.30
2018-12-20T18:05:29.673Z,5.47
2018-12-20T18:07:59.561Z,5.63
2018-12-20T18:10:28.350Z,5.53
2018-12-20T18:12:56.931Z,5.60
2018-12-20T18:15:25.630Z,6.33
2018-12-20T18:17:54.562Z,5.53
2018-12-20T18:20:23.476Z,5.67
2018-12-20T18:22:52.854Z,6.43
2018-12-20T18:25:21.536Z,6.13
2018-12-20T18:27:51.024Z,7.33
2018-12-20T18:30:19.887Z,8.30
2018-12-20T18:32:48.803Z,9.13
2018-12-20T18:35:17.477Z,7.70
2018-12-20T18:37:46.218Z,9.67
2018-12-20T18:40:15.075Z,9.37
2018-12-20T18:42:44.085Z,9.83
2018-12-20T18:45:12.848Z,9.27
2018-12-20T18:47:41.636Z,8.07
2018-12-20T18:50:11.103Z,8.43
2018-12-20T18:52:39.936Z,9.33
2018-12-20T18:55:08.720Z,9.60
2018-12-20T18:57:37.432Z,10.40
2018-12-20T19:00:08.275Z,10.33
2018-12-20T19:02:37.125Z,11.23
2018-12-20T19:05:07.179Z,10.67
2018-12-20T19:07:36.063Z,10.50
2018-12-20T19:10:05.940Z,10.53
2018-12-20T19:12:34.791Z,11.27
2018-12-20T19:15:03.736Z,9.93
2018-12-20T19:17:32.647Z,10.23
2018-12-20T19:20:01.419Z,11.03
2018-12-20T19:22:30.534Z,9.40
2018-12-20T19:24:59.402Z,10.10
2018-12-20T19:27:28.379Z,8.27
2018-12-20T19:29:57.207Z,8.77
2018-12-20T19:32:25.959Z,8.23
2018-12-20T19:34:54.829Z,8.70
2018-12-20T19:37:23.723Z,7.80
2018-12-20T19:39:56.657Z,8.70
2018-12-20T19:42:25.447Z,8.60
2018-12-20T19:44:54.233Z,9.50
2018-12-20T19:47:23.094Z,9.63
2018-12-20T19:49:51.814Z,10.57
2018-12-20T19:52:20.541Z,10.03
2018-12-20T19:54:49.334Z,9.60
2018-12-20T19:57:18.150Z,7.37
2018-12-20T19:59:46.808Z,7.43
2018-12-20T20:02:15.599Z,6.40
2018-12-20T20:04:44.372Z,6.93
2018-12-20T20:07:13.104Z,6.47
2018-12-20T20:09:41.836Z,8.03
2018-12-20T20:12:10.459Z,7.60
2018-12-20T20:14:39.409Z,6.40
2018-12-20T20:17:08.247Z,5.87
2018-12-20T20:19:36.959Z,6.47
2018-12-20T20:22:05.780Z,6.73
2018-12-20T20:24:34.540Z,6.67
2018-12-20T20:27:03.331Z,5.87
2018-12-20T20:29:32.072Z,6.53
2018-12-20T20:32:00.783Z,4.83
2018-12-20T20:34:29.398Z,6.90
2018-12-20T20:36:58.184Z,6.30
2018-12-20T20:39:26.839Z,6.07
2018-12-20T20:41:55.602Z,8.53
2018-12-20T20:44:24.338Z,8.10
2018-12-20T20:46:53.092Z,9.33
2018-12-20T20:49:21.677Z,9.13
2018-12-20T20:51:50.405Z,9.83
2018-12-20T20:54:19.094Z,8.07
2018-12-20T20:56:48.608Z,8.00
2018-12-20T20:59:17.510Z,6.97
2018-12-20T21:01:46.366Z,6.67
2018-12-20T21:04:15.127Z,6.57
2018-12-20T21:06:47.177Z,6.33
2018-12-20T21:09:17.130Z,6.03
2018-12-20T21:11:45.896Z,5.77
2018-12-20T21:14:14.625Z,6.33
2018-12-20T21:16:43.787Z,6.17
2018-12-20T21:19:12.545Z,6.17
2018-12-20T21:21:41.562Z,6.03
2018-12-20T21:24:10.272Z,5.40
2018-12-20T21:26:39.985Z,5.10
2018-12-20T21:29:08.798Z,5.80
2018-12-20T21:31:37.491Z,6.50
2018-12-20T21:34:06.250Z,5.00
2018-12-20T21:36:35.189Z,4.27
2018-12-20T21:39:05.625Z,4.90
2018-12-20T21:41:34.457Z,7.70
2018-12-20T21:44:03.275Z,6.57
2018-12-20T21:46:32.369Z,4.93
2018-12-20T21:49:01.148Z,4.17
2018-12-20T21:51:29.941Z,3.93
2018-12-20T21:53:58.772Z,3.27
2018-12-20T21:56:27.806Z,5.00
2018-12-20T21:58:56.710Z,4.10
2018-12-20T22:01:26.516Z,5.47
2018-12-20T22:04:01.639Z,4.57
2018-12-20T22:06:33.659Z,4.63
2018-12-20T22:09:02.854Z,4.87
2018-12-20T22:11:44.846Z,4.30
2018-12-20T22:14:13.686Z,4.77
2018-12-20T22:16:43.786Z,4.70
2018-12-20T22:19:12.505Z,3.97
2018-12-20T22:21:41.256Z,4.93
2018-12-20T22:24:10.027Z,5.50
2018-12-20T22:26:38.891Z,4.77
2018-12-20T22:29:07.677Z,4.47
2018-12-20T22:31:36.413Z,4.87
2018-12-20T22:34:05.298Z,4.03
2018-12-20T22:36:36.085Z,4.43
2018-12-20T22:39:06.646Z,4.60
2018-12-20T22:41:36.727Z,5.50
2018-12-20T22:44:10.189Z,5.00
2018-12-20T22:46:40.027Z,4.97
2018-12-20T22:49:11.095Z,6.23
2018-12-20T22:51:40.101Z,6.07
2018-12-20T22:54:09.476Z,6.73
2018-12-20T22:56:38.470Z,7.40
2018-12-20T22:59:07.418Z,7.57
2018-12-20T23:01:36.442Z,6.90
2018-12-20T23:04:05.459Z,6.93
2018-12-20T23:06:34.654Z,6.77
2018-12-20T23:09:04.968Z,6.53
2018-12-20T23:11:33.719Z,7.00
2018-12-20T23:14:04.374Z,5.37
2018-12-20T23:16:33.792Z,5.63
2018-12-20T23:19:02.665Z,4.67
2018-12-20T23:21:41.672Z,6.77
2018-12-20T23:24:10.800Z,5.07
2018-12-20T23:26:40.202Z,6.33
2018-12-20T23:29:08.817Z,7.50
2018-12-20T23:31:37.606Z,6.33
2018-12-20T23:34:06.405Z,6.87
2018-12-20T23:36:35.799Z,6.77
2018-12-20T23:39:06.103Z,6.30
2018-12-20T23:41:34.819Z,6.20
2018-12-20T23:44:03.531Z,5.00
2018-12-20T23:46:32.221Z,4.67
2018-12-20T23:49:00.982Z,3.97
2018-12-20T23:51:29.600Z,4.40
2018-12-20T23:53:58.276Z,4.73
2018-12-20T23:56:27.532Z,3.87
2018-12-20T23:58:56.264Z,4.80
